sensor_id;sensor_type;location;lat;lon;timestamp;P1;durP1;ratioP1;P2;durP2;ratioP2
28270;SDS011;15527;0.000;0.000;2022-11-15T00:00:51;6.00;;;4.88;;
28270;SDS011;15527;0.000;0.000;2022-11-15T00:01:52;6.43;;;4.95;;
28270;SDS011;15527;0.000;0.000;2022-11-15T00:02:54;5.22;;;4.63;;
28270;SDS011;15527;0.000;0.000;2022-11-15T00:03:53;7.50;;;4.95;;
28270;SDS011;15527;0.000;0.000;2022-11-15T00:04:51;6.47;;;4.85;;
28270;SDS011;15527;0.000;0.000;2022-11-15T00:05:50;5.68;;;4.60;;
28270;SDS011;15527;0.000;0.000;2022-11-15T00:06:48;5.10;;;4.40;;
28270;SDS011;15527;0.000;0.000;2022-11-15T00:07:47;6.45;;;4.93;;
28270;SDS011;15527;0.000;0.000;2022-11-15T00:08:48;6.13;;;4.65;;
28270;SDS011;15527;0.000;0.000;2022-11-15T00:09:49;6.50;;;4.90;;
28270;SDS011;15527;0.000;0.000;2022-11-15T00:10:57;6.50;;;5.00;;
28270;SDS011;15527;0.000;0.000;2022-11-15T00:11:57;5.13;;;4.57;;
28270;SDS011;15527;0.000;0.000;2022-11-15T00:12:58;5.20;;;4.68;;
28270;SDS011;15527;0.000;0.000;2022-11-15T00:13:57;5.03;;;4.53;;
28270;SDS011;15527;0.000;0.000;2022-11-15T00:14:56;6.07;;;5.03;;
28270;SDS011;15527;0.000;0.000;2022-11-15T00:15:58;5.90;;;4.95;;
28270;SDS011;15527;0.000;0.000;2022-11-15T00:16:57;6.47;;;4.72;;
28270;SDS011;15527;0.000;0.000;2022-11-15T00:17:58;4.78;;;4.25;;
28270;SDS011;15527;0.000;0.000;2022-11-15T00:18:56;6.43;;;5.00;;
28270;SDS011;15527;0.000;0.000;2022-11-15T00:19:55;6.00;;;5.10;;
28270;SDS011;15527;0.000;0.000;2022-11-15T00:20:54;6.80;;;4.80;;
28270;SDS011;15527;0.000;0.000;2022-11-15T00:21:55;4.97;;;4.47;;
28270;SDS011;15527;0.000;0.000;2022-11-15T00:22:54;6.97;;;4.78;;
28270;SDS011;15527;0.000;0.000;2022-11-15T00:23:52;6.50;;;5.03;;
28270;SDS011;15527;0.000;0.000;2022-11-15T00:24:54;5.63;;;4.50;;
28270;SDS011;15527;0.000;0.000;2022-11-15T00:25:56;6.00;;;4.70;;
28270;SDS011;15527;0.000;0.000;2022-11-15T00:26:55;5.45;;;4.28;;
28270;SDS011;15527;0.000;0.000;2022-11-15T00:27:56;7.00;;;4.78;;
28270;SDS011;15527;0.000;0.000;2022-11-15T00:28:56;4.75;;;4.35;;
28270;SDS011;15527;0.000;0.000;2022-11-15T00:29:57;4.88;;;4.47;;
28270;SDS011;15527;0.000;0.000;2022-11-15T00:31:02;4.90;;;4.32;;
28270;SDS011;15527;0.000;0.000;2022-11-15T00:32:04;5.30;;;4.80;;
28270;SDS011;15527;0.000;0.000;2022-11-15T00:33:03;5.45;;;4.85;;
28270;SDS011;15527;0.000;0.000;2022-11-15T00:34:03;5.47;;;4.85;;
28270;SDS011;15527;0.000;0.000;2022-11-15T00:35:01;5.80;;;4.43;;
28270;SDS011;15527;0.000;0.000;2022-11-15T00:36:00;5.10;;;4.40;;
28270;SDS011;15527;0.000;0.000;2022-11-15T00:37:04;5.28;;;4.75;;
28270;SDS011;15527;0.000;0.000;2022-11-15T00:38:04;6.70;;;4.93;;
28270;SDS011;15527;0.000;0.000;2022-11-15T00:39:03;5.00;;;4.50;;
28270;SDS011;15527;0.000;0.000;2022-11-15T00:40:03;4.88;;;4.38;;
28270;SDS011;15527;0.000;0.000;2022-11-15T00:41:03;5.10;;;4.60;;
28270;SDS011;15527;0.000;0.000;2022-11-15T00:42:02;4.90;;;4.38;;
28270;SDS011;15527;0.000;0.000;2022-11-15T00:43:01;5.25;;;4.38;;
28270;SDS011;15527;0.000;0.000;2022-11-15T00:44:00;5.50;;;4.68;;
28270;SDS011;15527;0.000;0.000;2022-11-15T00:45:01;5.20;;;4.32;;
28270;SDS011;15527;0.000;0.000;2022-11-15T00:45:59;5.63;;;4.57;;
28270;SDS011;15527;0.000;0.000;2022-11-15T00:46:58;5.22;;;4.43;;
28270;SDS011;15527;0.000;0.000;2022-11-15T00:47:56;5.00;;;4.32;;
28270;SDS011;15527;0.000;0.000;2022-11-15T00:48:57;4.68;;;4.20;;
28270;SDS011;15527;0.000;0.000;2022-11-15T00:49:56;4.22;;;3.83;;
28270;SDS011;15527;0.000;0.000;2022-11-15T00:50:55;4.43;;;3.90;;
28270;SDS011;15527;0.000;0.000;2022-11-15T00:51:53;4.97;;;4.30;;
28270;SDS011;15527;0.000;0.000;2022-11-15T00:52:54;5.72;;;4.85;;
28270;SDS011;15527;0.000;0.000;2022-11-15T00:53:52;5.22;;;4.53;;
28270;SDS011;15527;0.000;0.000;2022-11-15T00:54:53;6.40;;;4.78;;
28270;SDS011;15527;0.000;0.000;2022-11-15T00:55:54;5.85;;;4.20;;
28270;SDS011;15527;0.000;0.000;2022-11-15T00:56:52;5.18;;;4.22;;
28270;SDS011;15527;0.000;0.000;2022-11-15T00:57:51;6.50;;;4.30;;
28270;SDS011;15527;0.000;0.000;2022-11-15T00:58:50;5.40;;;4.15;;
28270;SDS011;15527;0.000;0.000;2022-11-15T00:59:48;5.35;;;4.82;;
28270;SDS011;15527;0.000;0.000;2022-11-15T01:00:49;5.95;;;4.63;;
28270;SDS011;15527;0.000;0.000;2022-11-15T01:01:47;5.18;;;4.45;;
28270;SDS011;15527;0.000;0.000;2022-11-15T01:02:46;5.53;;;4.57;;
28270;SDS011;15527;0.000;0.000;2022-11-15T01:03:45;4.72;;;4.25;;
28270;SDS011;15527;0.000;0.000;2022-11-15T01:04:43;4.90;;;4.45;;
28270;SDS011;15527;0.000;0.000;2022-11-15T01:05:42;4.78;;;4.28;;
28270;SDS011;15527;0.000;0.000;2022-11-15T01:06:40;4.93;;;4.43;;
28270;SDS011;15527;0.000;0.000;2022-11-15T01:07:39;4.32;;;3.92;;
28270;SDS011;15527;0.000;0.000;2022-11-15T01:08:38;4.97;;;4.45;;
28270;SDS011;15527;0.000;0.000;2022-11-15T01:09:37;4.82;;;4.13;;
28270;SDS011;15527;0.000;0.000;2022-11-15T01:10:36;5.53;;;4.93;;
28270;SDS011;15527;0.000;0.000;2022-11-15T01:11:35;4.68;;;4.07;;
28270;SDS011;15527;0.000;0.000;2022-11-15T01:12:33;4.75;;;4.20;;
28270;SDS011;15527;0.000;0.000;2022-11-15T01:13:35;4.50;;;4.10;;
28270;SDS011;15527;0.000;0.000;2022-11-15T01:14:35;4.40;;;4.00;;
28270;SDS011;15527;0.000;0.000;2022-11-15T01:15:33;4.57;;;4.07;;
28270;SDS011;15527;0.000;0.000;2022-11-15T01:16:32;4.88;;;4.38;;
28270;SDS011;15527;0.000;0.000;2022-11-15T01:17:31;4.80;;;4.28;;
28270;SDS011;15527;0.000;0.000;2022-11-15T01:18:29;6.20;;;4.30;;
28270;SDS011;15527;0.000;0.000;2022-11-15T01:19:28;4.95;;;4.10;;
28270;SDS011;15527;0.000;0.000;2022-11-15T01:20:26;5.28;;;3.92;;
28270;SDS011;15527;0.000;0.000;2022-11-15T01:21:25;4.78;;;4.28;;
28270;SDS011;15527;0.000;0.000;2022-11-15T01:22:24;5.47;;;4.75;;
28270;SDS011;15527;0.000;0.000;2022-11-15T01:23:25;4.47;;;4.07;;
28270;SDS011;15527;0.000;0.000;2022-11-15T01:24:26;4.80;;;4.05;;
28270;SDS011;15527;0.000;0.000;2022-11-15T01:25:25;5.00;;;4.35;;
28270;SDS011;15527;0.000;0.000;2022-11-15T01:26:23;5.88;;;4.18;;
28270;SDS011;15527;0.000;0.000;2022-11-15T01:27:23;5.55;;;4.15;;
28270;SDS011;15527;0.000;0.000;2022-11-15T01:28:24;4.93;;;4.50;;
28270;SDS011;15527;0.000;0.000;2022-11-15T01:29:24;4.75;;;4.25;;
28270;SDS011;15527;0.000;0.000;2022-11-15T01:30:23;4.57;;;3.97;;
28270;SDS011;15527;0.000;0.000;2022-11-15T01:31:22;4.70;;;4.18;;
28270;SDS011;15527;0.000;0.000;2022-11-15T01:32:20;4.50;;;4.05;;
28270;SDS011;15527;0.000;0.000;2022-11-15T01:33:21;5.10;;;4.40;;
28270;SDS011;15527;0.000;0.000;2022-11-15T01:34:20;4.75;;;4.20;;
28270;SDS011;15527;0.000;0.000;2022-11-15T01:35:18;5.78;;;4.07;;
28270;SDS011;15527;0.000;0.000;2022-11-15T01:36:19;4.78;;;4.30;;
28270;SDS011;15527;0.000;0.000;2022-11-15T01:37:22;5.25;;;4.07;;
28270;SDS011;15527;0.000;0.000;2022-11-15T01:38:23;4.93;;;3.83;;
28270;SDS011;15527;0.000;0.000;2022-11-15T01:39:21;4.63;;;4.00;;
28270;SDS011;15527;0.000;0.000;2022-11-15T01:40:20;4.63;;;4.20;;
28270;SDS011;15527;0.000;0.000;2022-11-15T01:41:20;4.78;;;4.28;;
28270;SDS011;15527;0.000;0.000;2022-11-15T01:42:21;4.88;;;4.13;;
28270;SDS011;15527;0.000;0.000;2022-11-15T01:45:39;4.82;;;4.18;;
28270;SDS011;15527;0.000;0.000;2022-11-15T01:46:37;5.35;;;4.53;;
28270;SDS011;15527;0.000;0.000;2022-11-15T01:47:40;5.38;;;4.13;;
28270;SDS011;15527;0.000;0.000;2022-11-15T01:48:40;5.35;;;3.90;;
28270;SDS011;15527;0.000;0.000;2022-11-15T01:49:45;5.00;;;4.45;;
28270;SDS011;15527;0.000;0.000;2022-11-15T01:50:56;4.43;;;3.97;;
28270;SDS011;15527;0.000;0.000;2022-11-15T01:51:57;4.38;;;3.97;;
28270;SDS011;15527;0.000;0.000;2022-11-15T01:52:58;4.22;;;3.90;;
28270;SDS011;15527;0.000;0.000;2022-11-15T01:53:58;5.20;;;3.92;;
28270;SDS011;15527;0.000;0.000;2022-11-15T01:55:18;4.82;;;4.18;;
28270;SDS011;15527;0.000;0.000;2022-11-15T01:56:29;4.35;;;3.95;;
28270;SDS011;15527;0.000;0.000;2022-11-15T01:57:33;4.47;;;4.05;;
28270;SDS011;15527;0.000;0.000;2022-11-15T01:58:34;4.45;;;3.90;;
28270;SDS011;15527;0.000;0.000;2022-11-15T01:59:34;4.40;;;4.00;;
28270;SDS011;15527;0.000;0.000;2022-11-15T02:00:37;4.57;;;4.05;;
28270;SDS011;15527;0.000;0.000;2022-11-15T02:01:36;4.93;;;3.75;;
28270;SDS011;15527;0.000;0.000;2022-11-15T02:02:39;4.40;;;3.75;;
28270;SDS011;15527;0.000;0.000;2022-11-15T02:03:41;5.15;;;4.13;;
28270;SDS011;15527;0.000;0.000;2022-11-15T02:04:48;4.78;;;4.28;;
28270;SDS011;15527;0.000;0.000;2022-11-15T02:05:46;4.50;;;4.05;;
28270;SDS011;15527;0.000;0.000;2022-11-15T02:06:45;5.60;;;4.18;;
28270;SDS011;15527;0.000;0.000;2022-11-15T02:07:46;5.00;;;4.50;;
28270;SDS011;15527;0.000;0.000;2022-11-15T02:08:49;5.05;;;4.20;;
28270;SDS011;15527;0.000;0.000;2022-11-15T02:09:50;4.15;;;3.75;;
28270;SDS011;15527;0.000;0.000;2022-11-15T02:10:51;4.22;;;3.78;;
28270;SDS011;15527;0.000;0.000;2022-11-15T02:11:54;4.35;;;3.95;;
28270;SDS011;15527;0.000;0.000;2022-11-15T02:12:58;4.32;;;3.92;;
28270;SDS011;15527;0.000;0.000;2022-11-15T02:14:02;4.20;;;3.75;;
28270;SDS011;15527;0.000;0.000;2022-11-15T02:15:03;4.25;;;3.83;;
28270;SDS011;15527;0.000;0.000;2022-11-15T02:19:00;4.95;;;4.22;;
28270;SDS011;15527;0.000;0.000;2022-11-15T02:21:50;4.70;;;3.97;;
28270;SDS011;15527;0.000;0.000;2022-11-15T02:23:23;4.45;;;4.05;;
28270;SDS011;15527;0.000;0.000;2022-11-15T02:24:37;3.70;;;3.40;;
28270;SDS011;15527;0.000;0.000;2022-11-15T02:31:13;4.00;;;3.60;;
28270;SDS011;15527;0.000;0.000;2022-11-15T02:32:29;4.75;;;4.25;;
28270;SDS011;15527;0.000;0.000;2022-11-15T02:36:00;4.93;;;4.13;;
28270;SDS011;15527;0.000;0.000;2022-11-15T02:37:15;4.65;;;4.00;;
28270;SDS011;15527;0.000;0.000;2022-11-15T02:39:50;4.68;;;4.25;;
28270;SDS011;15527;0.000;0.000;2022-11-15T02:41:06;4.20;;;3.80;;
28270;SDS011;15527;0.000;0.000;2022-11-15T02:42:10;4.10;;;3.70;;
28270;SDS011;15527;0.000;0.000;2022-11-15T02:44:54;3.80;;;3.47;;
28270;SDS011;15527;0.000;0.000;2022-11-15T02:46:20;4.32;;;3.42;;
28270;SDS011;15527;0.000;0.000;2022-11-15T02:47:58;4.60;;;4.05;;
28270;SDS011;15527;0.000;0.000;2022-11-15T02:48:58;4.35;;;3.85;;
28270;SDS011;15527;0.000;0.000;2022-11-15T02:50:08;4.43;;;4.00;;
28270;SDS011;15527;0.000;0.000;2022-11-15T02:51:08;4.30;;;3.90;;
28270;SDS011;15527;0.000;0.000;2022-11-15T02:52:08;4.55;;;3.92;;
28270;SDS011;15527;0.000;0.000;2022-11-15T02:53:09;4.53;;;4.13;;
28270;SDS011;15527;0.000;0.000;2022-11-15T02:54:15;4.25;;;3.85;;
28270;SDS011;15527;0.000;0.000;2022-11-15T02:56:24;5.22;;;4.22;;
28270;SDS011;15527;0.000;0.000;2022-11-15T02:57:33;3.95;;;3.55;;
28270;SDS011;15527;0.000;0.000;2022-11-15T02:58:40;4.18;;;3.78;;
28270;SDS011;15527;0.000;0.000;2022-11-15T03:06:41;3.72;;;3.40;;
28270;SDS011;15527;0.000;0.000;2022-11-15T03:09:24;4.03;;;3.60;;
28270;SDS011;15527;0.000;0.000;2022-11-15T03:12:07;4.25;;;3.85;;
28270;SDS011;15527;0.000;0.000;2022-11-15T03:14:37;4.20;;;3.80;;
28270;SDS011;15527;0.000;0.000;2022-11-15T03:16:06;3.88;;;3.47;;
28270;SDS011;15527;0.000;0.000;2022-11-15T03:19:29;4.10;;;3.70;;
28270;SDS011;15527;0.000;0.000;2022-11-15T03:20:45;4.22;;;3.47;;
28270;SDS011;15527;0.000;0.000;2022-11-15T03:21:47;3.75;;;3.42;;
28270;SDS011;15527;0.000;0.000;2022-11-15T03:22:49;3.95;;;3.65;;
28270;SDS011;15527;0.000;0.000;2022-11-15T03:23:48;3.75;;;3.45;;
28270;SDS011;15527;0.000;0.000;2022-11-15T03:24:54;3.67;;;3.38;;
28270;SDS011;15527;0.000;0.000;2022-11-15T03:25:59;4.10;;;3.70;;
28270;SDS011;15527;0.000;0.000;2022-11-15T03:26:59;4.05;;;3.72;;
28270;SDS011;15527;0.000;0.000;2022-11-15T03:28:01;4.45;;;3.90;;
28270;SDS011;15527;0.000;0.000;2022-11-15T03:29:04;3.60;;;3.30;;
28270;SDS011;15527;0.000;0.000;2022-11-15T03:30:13;4.18;;;3.50;;
28270;SDS011;15527;0.000;0.000;2022-11-15T03:31:13;3.95;;;3.40;;
28270;SDS011;15527;0.000;0.000;2022-11-15T03:32:34;3.72;;;3.42;;
28270;SDS011;15527;0.000;0.000;2022-11-15T03:33:36;3.60;;;3.30;;
28270;SDS011;15527;0.000;0.000;2022-11-15T03:34:47;3.60;;;3.30;;
28270;SDS011;15527;0.000;0.000;2022-11-15T03:35:59;4.38;;;3.97;;
28270;SDS011;15527;0.000;0.000;2022-11-15T03:37:00;4.72;;;3.65;;
28270;SDS011;15527;0.000;0.000;2022-11-15T03:39:09;3.70;;;3.40;;
28270;SDS011;15527;0.000;0.000;2022-11-15T03:40:10;3.92;;;3.45;;
28270;SDS011;15527;0.000;0.000;2022-11-15T03:41:15;3.50;;;3.20;;
28270;SDS011;15527;0.000;0.000;2022-11-15T03:43:43;4.07;;;3.67;;
28270;SDS011;15527;0.000;0.000;2022-11-15T03:44:58;4.45;;;3.70;;
28270;SDS011;15527;0.000;0.000;2022-11-15T03:46:14;4.45;;;3.78;;
28270;SDS011;15527;0.000;0.000;2022-11-15T03:47:23;3.72;;;3.33;;
28270;SDS011;15527;0.000;0.000;2022-11-15T03:48:30;3.60;;;3.30;;
28270;SDS011;15527;0.000;0.000;2022-11-15T03:49:36;3.55;;;3.25;;
28270;SDS011;15527;0.000;0.000;2022-11-15T03:50:37;3.85;;;3.38;;
28270;SDS011;15527;0.000;0.000;2022-11-15T03:51:38;4.60;;;3.83;;
28270;SDS011;15527;0.000;0.000;2022-11-15T03:52:37;4.30;;;3.67;;
28270;SDS011;15527;0.000;0.000;2022-11-15T03:53:38;3.72;;;3.40;;
28270;SDS011;15527;0.000;0.000;2022-11-15T03:54:52;3.88;;;3.47;;
28270;SDS011;15527;0.000;0.000;2022-11-15T03:55:52;3.80;;;3.50;;
28270;SDS011;15527;0.000;0.000;2022-11-15T03:56:53;3.88;;;3.47;;
28270;SDS011;15527;0.000;0.000;2022-11-15T03:57:53;3.85;;;3.55;;
28270;SDS011;15527;0.000;0.000;2022-11-15T03:58:56;3.97;;;3.58;;
28270;SDS011;15527;0.000;0.000;2022-11-15T03:59:57;3.85;;;3.55;;
28270;SDS011;15527;0.000;0.000;2022-11-15T04:00:58;3.92;;;3.50;;
28270;SDS011;15527;0.000;0.000;2022-11-15T04:01:59;3.70;;;3.40;;
28270;SDS011;15527;0.000;0.000;2022-11-15T04:02:57;3.85;;;3.47;;
28270;SDS011;15527;0.000;0.000;2022-11-15T04:03:56;3.83;;;3.53;;
28270;SDS011;15527;0.000;0.000;2022-11-15T04:04:57;3.78;;;3.40;;
28270;SDS011;15527;0.000;0.000;2022-11-15T04:05:55;4.10;;;3.70;;
28270;SDS011;15527;0.000;0.000;2022-11-15T04:06:56;3.50;;;3.20;;
28270;SDS011;15527;0.000;0.000;2022-11-15T04:07:55;3.65;;;3.35;;
28270;SDS011;15527;0.000;0.000;2022-11-15T04:08:56;3.65;;;3.35;;
28270;SDS011;15527;0.000;0.000;2022-11-15T04:09:54;4.60;;;3.38;;
28270;SDS011;15527;0.000;0.000;2022-11-15T04:11:03;3.88;;;3.50;;
28270;SDS011;15527;0.000;0.000;2022-11-15T04:12:01;4.85;;;3.47;;
28270;SDS011;15527;0.000;0.000;2022-11-15T04:13:02;4.00;;;3.60;;
28270;SDS011;15527;0.000;0.000;2022-11-15T04:14:01;3.90;;;3.50;;
28270;SDS011;15527;0.000;0.000;2022-11-15T04:16:06;3.90;;;3.60;;
28270;SDS011;15527;0.000;0.000;2022-11-15T04:17:04;3.30;;;3.00;;
28270;SDS011;15527;0.000;0.000;2022-11-15T04:18:03;3.53;;;3.22;;
28270;SDS011;15527;0.000;0.000;2022-11-15T04:19:01;3.85;;;3.50;;
28270;SDS011;15527;0.000;0.000;2022-11-15T04:21:36;3.60;;;3.30;;
28270;SDS011;15527;0.000;0.000;2022-11-15T04:22:57;3.50;;;3.17;;
28270;SDS011;15527;0.000;0.000;2022-11-15T04:24:15;3.45;;;3.15;;
28270;SDS011;15527;0.000;0.000;2022-11-15T04:25:14;3.53;;;3.22;;
28270;SDS011;15527;0.000;0.000;2022-11-15T04:26:18;3.40;;;3.10;;
28270;SDS011;15527;0.000;0.000;2022-11-15T04:27:20;3.58;;;3.28;;
28270;SDS011;15527;0.000;0.000;2022-11-15T04:28:19;3.40;;;3.10;;
28270;SDS011;15527;0.000;0.000;2022-11-15T04:29:18;3.33;;;3.05;;
28270;SDS011;15527;0.000;0.000;2022-11-15T04:30:34;3.67;;;3.38;;
28270;SDS011;15527;0.000;0.000;2022-11-15T04:31:35;3.78;;;3.40;;
28270;SDS011;15527;0.000;0.000;2022-11-15T04:32:38;3.47;;;3.17;;
28270;SDS011;15527;0.000;0.000;2022-11-15T04:33:39;3.40;;;3.10;;
28270;SDS011;15527;0.000;0.000;2022-11-15T04:34:37;4.07;;;3.70;;
28270;SDS011;15527;0.000;0.000;2022-11-15T04:35:36;4.18;;;3.53;;
28270;SDS011;15527;0.000;0.000;2022-11-15T04:36:35;3.50;;;3.20;;
28270;SDS011;15527;0.000;0.000;2022-11-15T04:38:03;3.20;;;3.00;;
28270;SDS011;15527;0.000;0.000;2022-11-15T04:39:05;3.60;;;3.30;;
28270;SDS011;15527;0.000;0.000;2022-11-15T04:40:06;4.03;;;3.70;;
28270;SDS011;15527;0.000;0.000;2022-11-15T04:41:05;3.50;;;3.20;;
28270;SDS011;15527;0.000;0.000;2022-11-15T04:42:09;4.57;;;3.75;;
28270;SDS011;15527;0.000;0.000;2022-11-15T04:43:08;3.63;;;3.33;;
28270;SDS011;15527;0.000;0.000;2022-11-15T04:44:06;4.25;;;3.60;;
28270;SDS011;15527;0.000;0.000;2022-11-15T04:45:05;4.22;;;3.83;;
28270;SDS011;15527;0.000;0.000;2022-11-15T04:46:08;3.60;;;3.30;;
28270;SDS011;15527;0.000;0.000;2022-11-15T04:47:07;3.85;;;3.50;;
28270;SDS011;15527;0.000;0.000;2022-11-15T04:48:08;3.60;;;3.30;;
28270;SDS011;15527;0.000;0.000;2022-11-15T04:49:09;3.22;;;2.92;;
28270;SDS011;15527;0.000;0.000;2022-11-15T04:50:08;3.08;;;2.88;;
28270;SDS011;15527;0.000;0.000;2022-11-15T04:51:08;3.95;;;3.55;;
28270;SDS011;15527;0.000;0.000;2022-11-15T04:52:09;3.75;;;3.45;;
28270;SDS011;15527;0.000;0.000;2022-11-15T04:53:08;3.30;;;3.00;;
28270;SDS011;15527;0.000;0.000;2022-11-15T04:54:09;3.50;;;3.20;;
28270;SDS011;15527;0.000;0.000;2022-11-15T04:55:08;3.40;;;3.10;;
28270;SDS011;15527;0.000;0.000;2022-11-15T04:56:10;3.90;;;3.50;;
28270;SDS011;15527;0.000;0.000;2022-11-15T04:57:09;3.50;;;3.20;;
28270;SDS011;15527;0.000;0.000;2022-11-15T04:58:10;3.40;;;3.10;;
28270;SDS011;15527;0.000;0.000;2022-11-15T04:59:09;3.60;;;3.30;;
28270;SDS011;15527;0.000;0.000;2022-11-15T05:00:09;3.83;;;3.20;;
28270;SDS011;15527;0.000;0.000;2022-11-15T05:01:13;3.47;;;3.17;;
28270;SDS011;15527;0.000;0.000;2022-11-15T05:02:12;3.55;;;3.25;;
28270;SDS011;15527;0.000;0.000;2022-11-15T05:03:11;3.50;;;3.20;;
28270;SDS011;15527;0.000;0.000;2022-11-15T05:04:28;3.63;;;3.33;;
28270;SDS011;15527;0.000;0.000;2022-11-15T05:05:29;3.40;;;3.10;;
28270;SDS011;15527;0.000;0.000;2022-11-15T05:06:27;3.83;;;3.30;;
28270;SDS011;15527;0.000;0.000;2022-11-15T05:07:26;3.72;;;3.42;;
28270;SDS011;15527;0.000;0.000;2022-11-15T05:08:25;3.63;;;3.13;;
28270;SDS011;15527;0.000;0.000;2022-11-15T05:09:24;3.45;;;3.15;;
28270;SDS011;15527;0.000;0.000;2022-11-15T05:10:22;3.20;;;2.90;;
28270;SDS011;15527;0.000;0.000;2022-11-15T05:11:23;3.72;;;3.42;;
28270;SDS011;15527;0.000;0.000;2022-11-15T05:12:24;3.63;;;3.33;;
28270;SDS011;15527;0.000;0.000;2022-11-15T05:13:23;3.35;;;3.05;;
28270;SDS011;15527;0.000;0.000;2022-11-15T05:14:22;3.53;;;3.22;;
28270;SDS011;15527;0.000;0.000;2022-11-15T05:15:20;3.80;;;3.20;;
28270;SDS011;15527;0.000;0.000;2022-11-15T05:16:19;3.20;;;2.90;;
28270;SDS011;15527;0.000;0.000;2022-11-15T05:17:23;3.50;;;3.20;;
28270;SDS011;15527;0.000;0.000;2022-11-15T05:18:21;3.45;;;3.15;;
28270;SDS011;15527;0.000;0.000;2022-11-15T05:19:20;3.08;;;2.78;;
28270;SDS011;15527;0.000;0.000;2022-11-15T05:20:20;3.55;;;3.25;;
28270;SDS011;15527;0.000;0.000;2022-11-15T05:21:19;3.55;;;3.25;;
28270;SDS011;15527;0.000;0.000;2022-11-15T05:22:21;3.95;;;3.60;;
28270;SDS011;15527;0.000;0.000;2022-11-15T05:23:19;3.42;;;3.13;;
28270;SDS011;15527;0.000;0.000;2022-11-15T05:24:18;3.47;;;3.17;;
28270;SDS011;15527;0.000;0.000;2022-11-15T05:25:19;3.40;;;3.20;;
28270;SDS011;15527;0.000;0.000;2022-11-15T05:26:18;3.10;;;2.80;;
28270;SDS011;15527;0.000;0.000;2022-11-15T05:27:16;3.35;;;3.05;;
28270;SDS011;15527;0.000;0.000;2022-11-15T05:28:17;3.50;;;3.20;;
28270;SDS011;15527;0.000;0.000;2022-11-15T05:29:16;3.47;;;3.17;;
28270;SDS011;15527;0.000;0.000;2022-11-15T05:30:15;3.55;;;3.25;;
28270;SDS011;15527;0.000;0.000;2022-11-15T05:31:15;2.90;;;2.70;;
28270;SDS011;15527;0.000;0.000;2022-11-15T05:32:16;3.63;;;3.33;;
28270;SDS011;15527;0.000;0.000;2022-11-15T05:33:18;2.95;;;2.75;;
28270;SDS011;15527;0.000;0.000;2022-11-15T05:34:17;3.28;;;3.03;;
28270;SDS011;15527;0.000;0.000;2022-11-15T05:35:34;3.47;;;3.10;;
28270;SDS011;15527;0.000;0.000;2022-11-15T05:36:38;3.05;;;2.85;;
28270;SDS011;15527;0.000;0.000;2022-11-15T05:37:40;3.00;;;2.70;;
28270;SDS011;15527;0.000;0.000;2022-11-15T05:38:39;3.30;;;3.00;;
28270;SDS011;15527;0.000;0.000;2022-11-15T05:39:40;3.13;;;2.92;;
28270;SDS011;15527;0.000;0.000;2022-11-15T05:40:38;3.38;;;3.10;;
28270;SDS011;15527;0.000;0.000;2022-11-15T05:41:40;3.28;;;2.97;;
28270;SDS011;15527;0.000;0.000;2022-11-15T05:42:47;3.47;;;3.17;;
28270;SDS011;15527;0.000;0.000;2022-11-15T05:43:46;3.40;;;3.08;;
28270;SDS011;15527;0.000;0.000;2022-11-15T05:44:47;3.03;;;2.83;;
28270;SDS011;15527;0.000;0.000;2022-11-15T05:45:47;3.40;;;3.10;;
28270;SDS011;15527;0.000;0.000;2022-11-15T05:46:46;3.70;;;3.40;;
28270;SDS011;15527;0.000;0.000;2022-11-15T05:47:47;3.85;;;3.35;;
28270;SDS011;15527;0.000;0.000;2022-11-15T05:48:48;3.50;;;3.20;;
28270;SDS011;15527;0.000;0.000;2022-11-15T05:49:50;2.92;;;2.63;;
28270;SDS011;15527;0.000;0.000;2022-11-15T05:50:50;2.92;;;2.72;;
28270;SDS011;15527;0.000;0.000;2022-11-15T05:51:50;2.95;;;2.75;;
28270;SDS011;15527;0.000;0.000;2022-11-15T05:52:52;3.40;;;3.10;;
28270;SDS011;15527;0.000;0.000;2022-11-15T05:53:55;3.60;;;3.10;;
28270;SDS011;15527;0.000;0.000;2022-11-15T05:54:58;3.38;;;3.10;;
28270;SDS011;15527;0.000;0.000;2022-11-15T05:55:57;3.00;;;2.80;;
28270;SDS011;15527;0.000;0.000;2022-11-15T05:56:56;3.75;;;3.28;;
28270;SDS011;15527;0.000;0.000;2022-11-15T05:57:57;2.90;;;2.70;;
28270;SDS011;15527;0.000;0.000;2022-11-15T05:58:55;3.65;;;3.35;;
28270;SDS011;15527;0.000;0.000;2022-11-15T05:59:57;3.65;;;3.33;;
28270;SDS011;15527;0.000;0.000;2022-11-15T06:00:56;3.30;;;3.00;;
28270;SDS011;15527;0.000;0.000;2022-11-15T06:01:55;3.00;;;2.80;;
28270;SDS011;15527;0.000;0.000;2022-11-15T06:02:56;3.83;;;3.50;;
28270;SDS011;15527;0.000;0.000;2022-11-15T06:03:54;3.50;;;3.20;;
28270;SDS011;15527;0.000;0.000;2022-11-15T06:04:55;3.33;;;3.08;;
28270;SDS011;15527;0.000;0.000;2022-11-15T06:05:56;3.10;;;2.72;;
28270;SDS011;15527;0.000;0.000;2022-11-15T06:06:55;3.50;;;3.20;;
28270;SDS011;15527;0.000;0.000;2022-11-15T06:07:59;3.42;;;3.05;;
28270;SDS011;15527;0.000;0.000;2022-11-15T06:08:58;3.28;;;3.00;;
28270;SDS011;15527;0.000;0.000;2022-11-15T06:09:59;3.15;;;2.85;;
28270;SDS011;15527;0.000;0.000;2022-11-15T06:11:04;3.53;;;2.90;;
28270;SDS011;15527;0.000;0.000;2022-11-15T06:12:03;3.40;;;3.10;;
28270;SDS011;15527;0.000;0.000;2022-11-15T06:13:03;3.15;;;2.85;;
28270;SDS011;15527;0.000;0.000;2022-11-15T06:14:05;3.08;;;2.85;;
28270;SDS011;15527;0.000;0.000;2022-11-15T06:15:03;3.28;;;2.97;;
28270;SDS011;15527;0.000;0.000;2022-11-15T06:16:02;2.90;;;2.70;;
28270;SDS011;15527;0.000;0.000;2022-11-15T06:17:01;3.53;;;3.22;;
28270;SDS011;15527;0.000;0.000;2022-11-15T06:18:02;3.50;;;3.20;;
28270;SDS011;15527;0.000;0.000;2022-11-15T06:19:01;3.08;;;2.88;;
28270;SDS011;15527;0.000;0.000;2022-11-15T06:20:06;3.50;;;3.20;;
28270;SDS011;15527;0.000;0.000;2022-11-15T06:21:05;2.90;;;2.70;;
28270;SDS011;15527;0.000;0.000;2022-11-15T06:22:04;3.17;;;2.95;;
28270;SDS011;15527;0.000;0.000;2022-11-15T06:23:03;3.40;;;3.10;;
28270;SDS011;15527;0.000;0.000;2022-11-15T06:24:02;4.50;;;3.35;;
28270;SDS011;15527;0.000;0.000;2022-11-15T06:25:02;4.50;;;2.97;;
28270;SDS011;15527;0.000;0.000;2022-11-15T06:26:01;6.63;;;3.30;;
28270;SDS011;15527;0.000;0.000;2022-11-15T06:27:03;5.57;;;3.53;;
28270;SDS011;15527;0.000;0.000;2022-11-15T06:28:02;6.60;;;3.40;;
28270;SDS011;15527;0.000;0.000;2022-11-15T06:29:02;4.85;;;3.30;;
28270;SDS011;15527;0.000;0.000;2022-11-15T06:30:03;3.17;;;2.83;;
28270;SDS011;15527;0.000;0.000;2022-11-15T06:31:03;3.72;;;3.25;;
28270;SDS011;15527;0.000;0.000;2022-11-15T06:32:05;4.22;;;2.90;;
28270;SDS011;15527;0.000;0.000;2022-11-15T06:33:06;6.47;;;3.45;;
28270;SDS011;15527;0.000;0.000;2022-11-15T06:34:06;5.38;;;3.83;;
28270;SDS011;15527;0.000;0.000;2022-11-15T06:35:07;3.78;;;3.35;;
28270;SDS011;15527;0.000;0.000;2022-11-15T06:36:09;5.63;;;3.47;;
28270;SDS011;15527;0.000;0.000;2022-11-15T06:37:14;3.38;;;3.08;;
28270;SDS011;15527;0.000;0.000;2022-11-15T06:38:12;6.60;;;3.60;;
28270;SDS011;15527;0.000;0.000;2022-11-15T06:39:11;5.13;;;3.60;;
28270;SDS011;15527;0.000;0.000;2022-11-15T06:40:10;5.78;;;3.72;;
28270;SDS011;15527;0.000;0.000;2022-11-15T06:41:12;9.75;;;4.65;;
28270;SDS011;15527;0.000;0.000;2022-11-15T06:42:11;9.02;;;4.93;;
28270;SDS011;15527;0.000;0.000;2022-11-15T06:43:10;9.73;;;4.80;;
28270;SDS011;15527;0.000;0.000;2022-11-15T06:44:08;12.20;;;5.50;;
28270;SDS011;15527;0.000;0.000;2022-11-15T06:45:07;26.02;;;9.05;;
28270;SDS011;15527;0.000;0.000;2022-11-15T06:46:08;44.03;;;13.40;;
28270;SDS011;15527;0.000;0.000;2022-11-15T06:47:07;50.35;;;15.55;;
28270;SDS011;15527;0.000;0.000;2022-11-15T06:48:05;48.83;;;15.95;;
28270;SDS011;15527;0.000;0.000;2022-11-15T06:49:06;44.15;;;14.70;;
28270;SDS011;15527;0.000;0.000;2022-11-15T06:50:05;43.45;;;14.00;;
28270;SDS011;15527;0.000;0.000;2022-11-15T06:51:04;41.33;;;12.82;;
28270;SDS011;15527;0.000;0.000;2022-11-15T06:52:03;46.38;;;14.48;;
28270;SDS011;15527;0.000;0.000;2022-11-15T06:53:05;36.70;;;13.00;;
28270;SDS011;15527;0.000;0.000;2022-11-15T06:54:06;43.53;;;14.18;;
28270;SDS011;15527;0.000;0.000;2022-11-15T06:55:04;39.92;;;12.88;;
28270;SDS011;15527;0.000;0.000;2022-11-15T06:56:04;31.20;;;12.48;;